Time;durP1;ratioP1;P1;durP2;ratioP2;P2;SDS_P1;SDS_P2;PMS_P1;PMS_P2;Temp;Humidity;BMP_temperature;BMP_pressure;BME280_temperature;BME280_humidity;BME280_pressure;Samples;Min_cycle;Max_cycle;Signal;HPM_P1;HPM_P2
2023/10/11 00:01:01;;;;;;;;;;;16.30;99.90;;;;;;5111918;28;20439;-33
2023/10/11 00:03:34;;;;;;;;;;;16.30;99.90;;;;;;5113082;28;19985;-33
2023/10/11 00:06:02;;;;;;;;;;;16.20;99.90;;;;;;5113203;28;19948;-32
2023/10/11 00:08:35;;;;;;;;;;;16.20;99.90;;;;;;5112957;28;20034;-32
2023/10/11 00:11:02;;;;;;;;;;;16.20;99.90;;;;;;5112960;28;19940;-32
2023/10/11 00:13:32;;;;;;;;;;;16.20;99.90;;;;;;5111734;28;19995;-33
2023/10/11 00:16:07;;;;;;;;;;;16.20;99.90;;;;;;5112127;28;19999;-33
2023/10/11 00:18:34;;;;;;;;;;;16.20;99.90;;;;;;5112658;28;20302;-32
2023/10/11 00:21:09;;;;;;;;;;;16.20;99.90;;;;;;5114326;28;20352;-32
2023/10/11 00:23:36;;;;;;;;;;;16.20;99.90;;;;;;5115625;28;19949;-32
2023/10/11 00:26:03;;;;;;;;;;;16.20;99.90;;;;;;5115816;28;19942;-33
2023/10/11 00:28:31;;;;;;;;;;;16.10;99.90;;;;;;5115977;28;19992;-33
2023/10/11 00:31:00;;;;;;;;;;;16.10;99.90;;;;;;5115881;28;19992;-33
2023/10/11 00:33:28;;;;;;;;;;;16.10;99.90;;;;;;5150383;27;20007;-32
2023/10/11 00:35:55;;;;;;;;;;;16.10;99.90;;;;;;5150260;27;19942;-32
2023/10/11 00:38:27;;;;;;;;;;;16.10;99.90;;;;;;5115719;28;19943;-32
2023/10/11 00:41:06;;;;;;;;;;;16.00;99.90;;;;;;5116540;28;19943;-32
2023/10/11 00:43:33;;;;;;;;;;;16.00;99.90;;;;;;5115445;28;20040;-32
2023/10/11 00:46:00;;;;;;;;;;;16.10;99.90;;;;;;5115595;28;19943;-32
2023/10/11 00:48:30;;;;;;;;;;;16.10;99.90;;;;;;5115177;28;19971;-32
2023/10/11 00:50:57;;;;;;;;;;;16.10;99.90;;;;;;5115386;28;19944;-32
2023/10/11 00:53:26;;;;;;;;;;;16.00;99.90;;;;;;5116280;28;20409;-32
2023/10/11 00:55:55;;;;;;;;;;;16.00;99.90;;;;;;5116292;28;19953;-32
2023/10/11 00:58:22;;;;;;;;;;;16.00;99.90;;;;;;5116476;28;19986;-31
2023/10/11 01:00:49;;;;;;;;;;;16.00;99.90;;;;;;5114966;28;19969;-32
2023/10/11 01:03:17;;;;;;;;;;;16.00;99.90;;;;;;5116185;28;20398;-31
2023/10/11 01:05:47;;;;;;;;;;;16.00;99.90;;;;;;5115240;28;19946;-31
2023/10/11 01:08:14;;;;;;;;;;;16.00;99.90;;;;;;5116445;28;19950;-32
2023/10/11 01:10:45;;;;;;;;;;;16.00;99.90;;;;;;5115308;28;20371;-32
2023/10/11 01:13:13;;;;;;;;;;;16.00;99.90;;;;;;5116022;28;19997;-32
2023/10/11 01:15:40;;;;;;;;;;;16.00;99.90;;;;;;5116010;28;20387;-32
2023/10/11 01:18:07;;;;;;;;;;;16.00;99.90;;;;;;5114822;28;19940;-33
2023/10/11 01:20:39;;;;;;;;;;;16.00;99.90;;;;;;5114462;28;19957;-31
2023/10/11 01:23:05;;;;;;;;;;;16.00;99.90;;;;;;5115004;28;19990;-33
2023/10/11 01:25:33;;;;;;;;;;;16.00;99.90;;;;;;5115799;28;20390;-32
2023/10/11 01:28:00;;;;;;;;;;;16.00;99.90;;;;;;5114610;28;20012;-32
2023/10/11 01:30:27;;;;;;;;;;;16.00;99.90;;;;;;5114748;28;19945;-32
2023/10/11 01:32:55;;;;;;;;;;;16.00;99.90;;;;;;5113700;28;19950;-32
2023/10/11 01:35:21;;;;;;;;;;;16.00;99.90;;;;;;5114480;28;19943;-32
2023/10/11 01:37:49;;;;;;;;;;;16.00;99.90;;;;;;5114830;28;19943;-32
2023/10/11 01:40:21;;;;;;;;;;;16.00;99.90;;;;;;5115537;28;19962;-31
2023/10/11 01:42:49;;;;;;;;;;;16.00;99.90;;;;;;5114556;28;19949;-32
2023/10/11 01:45:17;;;;;;;;;;;16.00;99.90;;;;;;5114394;28;19992;-34
2023/10/11 01:47:45;;;;;;;;;;;16.00;99.90;;;;;;5115495;28;19970;-32
2023/10/11 01:50:12;;;;;;;;;;;16.00;99.90;;;;;;5148626;27;20004;-34
2023/10/11 01:52:39;;;;;;;;;;;16.00;99.90;;;;;;5115429;28;19952;-33
2023/10/11 01:55:10;;;;;;;;;;;16.00;99.90;;;;;;5115421;28;20047;-32
2023/10/11 01:57:38;;;;;;;;;;;16.00;99.90;;;;;;5113849;28;20417;-33
2023/10/11 02:00:13;;;;;;;;;;;16.00;99.90;;;;;;5113908;28;19971;-32
2023/10/11 02:02:44;;;;;;;;;;;16.00;99.90;;;;;;5114945;28;19942;-32
2023/10/11 02:05:12;;;;;;;;;;;16.00;99.90;;;;;;5114277;28;20038;-32
2023/10/11 02:07:39;;;;;;;;;;;16.00;99.90;;;;;;5114826;28;20340;-31
2023/10/11 02:10:08;;;;;;;;;;;16.00;99.90;;;;;;5113766;28;20322;-32
2023/10/11 02:12:35;;;;;;;;;;;16.00;99.90;;;;;;5114927;28;19945;-32
2023/10/11 02:15:07;;;;;;;;;;;16.00;99.90;;;;;;5114794;28;20397;-32
2023/10/11 02:17:37;;;;;;;;;;;16.00;99.90;;;;;;5114051;28;19954;-32
2023/10/11 02:20:06;;;;;;;;;;;16.00;99.90;;;;;;5114720;28;20059;-32
2023/10/11 02:22:34;;;;;;;;;;;16.00;99.90;;;;;;5113811;28;20468;-32
2023/10/11 02:25:09;;;;;;;;;;;15.90;99.90;;;;;;5113576;28;19945;-33
2023/10/11 02:27:37;;;;;;;;;;;15.90;99.90;;;;;;5114591;28;19937;-32
2023/10/11 02:30:07;;;;;;;;;;;15.90;99.90;;;;;;5114622;28;19945;-32
2023/10/11 02:32:38;;;;;;;;;;;15.90;99.90;;;;;;5113668;28;19947;-32
2023/10/11 02:35:06;;;;;;;;;;;15.90;99.90;;;;;;5113557;28;19944;-32
2023/10/11 02:37:36;;;;;;;;;;;15.90;99.90;;;;;;5113510;28;19943;-32
2023/10/11 02:40:07;;;;;;;;;;;15.90;99.90;;;;;;5113019;28;19965;-35
2023/10/11 02:42:36;;;;;;;;;;;15.90;99.90;;;;;;5114274;28;20004;-32
2023/10/11 02:45:06;;;;;;;;;;;15.80;99.90;;;;;;5113140;28;19941;-33
2023/10/11 02:47:35;;;;;;;;;;;15.80;99.90;;;;;;5114266;28;19969;-32
2023/10/11 02:50:05;;;;;;;;;;;15.80;99.90;;;;;;5113345;28;20310;-32
2023/10/11 02:52:35;;;;;;;;;;;15.80;99.90;;;;;;5114171;28;20381;-33
2023/10/11 02:55:11;;;;;;;;;;;15.80;99.90;;;;;;5113279;28;19946;-32
2023/10/11 02:57:40;;;;;;;;;;;15.80;99.90;;;;;;5114143;28;19943;-32
2023/10/11 03:00:21;;;;;;;;;;;15.80;99.90;;;;;;5114105;28;19969;-33
2023/10/11 03:02:54;;;;;;;;;;;15.80;99.90;;;;;;5112926;28;19949;-33
2023/10/11 03:05:26;;;;;;;;;;;15.80;99.90;;;;;;5113901;28;19951;-33
2023/10/11 03:08:13;;;;;;;;;;;15.80;99.90;;;;;;5112772;28;19945;-32
2023/10/11 03:10:43;;;;;;;;;;;15.80;99.90;;;;;;5113053;28;19949;-32
2023/10/11 03:13:10;;;;;;;;;;;15.70;99.90;;;;;;5113684;28;19974;-32
2023/10/11 03:15:39;;;;;;;;;;;15.70;99.90;;;;;;5112758;28;19942;-32
2023/10/11 03:18:06;;;;;;;;;;;15.70;99.90;;;;;;5113580;28;20406;-32
2023/10/11 03:20:36;;;;;;;;;;;15.70;99.90;;;;;;5112537;28;20338;-32
2023/10/11 03:23:10;;;;;;;;;;;15.70;99.90;;;;;;5113623;28;20027;-33
2023/10/11 03:25:38;;;;;;;;;;;15.70;99.90;;;;;;5112523;28;19940;-33
2023/10/11 03:28:05;;;;;;;;;;;15.70;99.90;;;;;;5146857;27;19948;-32
2023/10/11 03:30:35;;;;;;;;;;;15.70;99.90;;;;;;5112464;28;19945;-32
2023/10/11 03:33:03;;;;;;;;;;;15.60;99.90;;;;;;5112462;28;19947;-32
2023/10/11 03:35:34;;;;;;;;;;;15.60;99.90;;;;;;5112452;28;20449;-33
2023/10/11 03:38:01;;;;;;;;;;;15.60;99.90;;;;;;5113472;28;20329;-32
2023/10/11 03:40:34;;;;;;;;;;;15.60;99.90;;;;;;5112123;28;19961;-32
2023/10/11 03:43:03;;;;;;;;;;;15.60;99.90;;;;;;5112223;28;20364;-32
2023/10/11 03:45:34;;;;;;;;;;;15.60;99.90;;;;;;5112095;28;19990;-32
2023/10/11 03:48:09;;;;;;;;;;;15.60;99.90;;;;;;5111872;28;19979;-33
2023/10/11 03:50:37;;;;;;;;;;;15.60;99.90;;;;;;5112236;28;19996;-33
2023/10/11 03:53:10;;;;;;;;;;;15.60;99.90;;;;;;5113139;28;19946;-32
2023/10/11 03:55:45;;;;;;;;;;;15.60;99.90;;;;;;5112672;28;19944;-32
2023/10/11 03:58:12;;;;;;;;;;;15.60;99.90;;;;;;5112997;28;19947;-32
2023/10/11 04:00:46;;;;;;;;;;;15.70;99.90;;;;;;5113040;28;20043;-32
2023/10/11 04:03:17;;;;;;;;;;;15.70;99.90;;;;;;5112207;28;19951;-32
2023/10/11 04:05:47;;;;;;;;;;;15.70;99.90;;;;;;5111822;28;19953;-33
2023/10/11 04:08:21;;;;;;;;;;;15.70;99.90;;;;;;5111889;28;19967;-32
2023/10/11 04:10:49;;;;;;;;;;;15.70;99.90;;;;;;5112895;28;19947;-33
2023/10/11 04:13:18;;;;;;;;;;;15.70;99.90;;;;;;5112908;28;20391;-32
2023/10/11 04:15:49;;;;;;;;;;;15.70;99.90;;;;;;5112111;28;20470;-32
2023/10/11 04:18:32;;;;;;;;;;;15.70;99.90;;;;;;5111850;28;20056;-33
2023/10/11 04:21:14;;;;;;;;;;;15.70;99.90;;;;;;5111614;28;19960;-34
2023/10/11 04:23:45;;;;;;;;;;;15.70;99.90;;;;;;5112010;28;20388;-33
2023/10/11 04:26:25;;;;;;;;;;;15.70;99.90;;;;;;5146318;27;19957;-33
2023/10/11 04:28:52;;;;;;;;;;;15.70;99.90;;;;;;5111712;28;19947;-33
2023/10/11 04:31:30;;;;;;;;;;;15.80;99.90;;;;;;5111884;28;19945;-33
2023/10/11 04:33:59;;;;;;;;;;;15.80;99.90;;;;;;5112542;28;20423;-32
2023/10/11 04:36:28;;;;;;;;;;;15.70;99.90;;;;;;5111913;28;19976;-32
2023/10/11 04:39:03;;;;;;;;;;;15.80;99.90;;;;;;5111449;28;19950;-32
2023/10/11 04:41:37;;;;;;;;;;;15.80;99.90;;;;;;5111503;28;19970;-32
2023/10/11 04:44:13;;;;;;;;;;;15.80;99.90;;;;;;5112659;28;19941;-32
2023/10/11 04:46:40;;;;;;;;;;;15.80;99.90;;;;;;5111769;28;20028;-32
2023/10/11 04:49:18;;;;;;;;;;;15.80;99.90;;;;;;5146308;27;19946;-31
2023/10/11 04:51:46;;;;;;;;;;;15.80;99.90;;;;;;5111585;28;19941;-33
2023/10/11 04:54:15;;;;;;;;;;;15.70;99.90;;;;;;5111569;28;20038;-32
2023/10/11 04:56:55;;;;;;;;;;;15.80;99.90;;;;;;5111402;28;20053;-32
2023/10/11 04:59:27;;;;;;;;;;;15.80;99.90;;;;;;5112709;28;19946;-32
2023/10/11 05:02:02;;;;;;;;;;;15.80;99.90;;;;;;5111150;28;19964;-33
2023/10/11 05:04:30;;;;;;;;;;;15.80;99.90;;;;;;5145981;27;19944;-32
2023/10/11 05:06:57;;;;;;;;;;;15.70;99.90;;;;;;5112304;28;20312;-32
2023/10/11 05:09:37;;;;;;;;;;;15.80;99.90;;;;;;5114271;28;19953;-32
2023/10/11 05:12:08;;;;;;;;;;;15.80;99.90;;;;;;5149578;27;19991;-32
2023/10/11 05:14:39;;;;;;;;;;;15.80;99.90;;;;;;5116152;28;19958;-32
2023/10/11 05:17:31;;;;;;;;;;;15.80;99.90;;;;;;5115132;28;19944;-32
2023/10/11 05:20:20;;;;;;;;;;;15.80;99.90;;;;;;5114718;28;19943;-32
2023/10/11 05:22:49;;;;;;;;;;;15.80;99.90;;;;;;5114907;28;19983;-34
2023/10/11 05:25:37;;;;;;;;;;;15.90;99.90;;;;;;5115008;28;19973;-32
2023/10/11 05:31:01;;;;;;;;;;;15.90;99.90;;;;;;5114849;27;19981;-33
2023/10/11 05:33:41;;;;;;;;;;;15.90;99.90;;;;;;5114737;28;20455;-32
2023/10/11 05:36:36;;;;;;;;;;;15.90;99.90;;;;;;5115568;28;20412;-33
2023/10/11 05:52:47;;;;;;;;;;;15.80;99.90;;;;;;5114429;28;19944;-32
2023/10/11 05:55:16;;;;;;;;;;;15.80;99.90;;;;;;5115115;28;20003;-32
2023/10/11 05:57:44;;;;;;;;;;;15.80;99.90;;;;;;5113892;28;19942;-32
2023/10/11 06:00:22;;;;;;;;;;;15.80;99.90;;;;;;5114261;28;19949;-32
2023/10/11 06:02:49;;;;;;;;;;;15.70;99.90;;;;;;5115271;28;19948;-32
2023/10/11 06:05:17;;;;;;;;;;;15.70;99.90;;;;;;5115215;28;19942;-32
2023/10/11 06:07:43;;;;;;;;;;;15.70;99.90;;;;;;5114912;28;19947;-33
2023/10/11 06:10:17;;;;;;;;;;;15.70;99.90;;;;;;5113573;28;19994;-33
2023/10/11 06:12:45;;;;;;;;;;;15.80;99.90;;;;;;5113891;28;19953;-33
2023/10/11 06:15:17;;;;;;;;;;;15.80;99.90;;;;;;5113902;28;20015;-32
2023/10/11 06:17:48;;;;;;;;;;;15.80;99.90;;;;;;5113786;28;19943;-34
2023/10/11 06:20:23;;;;;;;;;;;15.70;99.90;;;;;;5114239;28;19944;-31
2023/10/11 06:22:50;;;;;;;;;;;15.70;99.90;;;;;;5113541;28;19948;-32
2023/10/11 06:25:23;;;;;;;;;;;15.80;99.90;;;;;;5113531;28;19950;-32
2023/10/11 06:30:35;;;;;;;;;;;15.80;99.90;;;;;;5113917;28;19942;-32
2023/10/11 06:33:06;;;;;;;;;;;15.70;99.90;;;;;;5113206;28;19956;-32
2023/10/11 06:35:43;;;;;;;;;;;15.70;99.90;;;;;;5114442;28;20458;-33
2023/10/11 06:38:10;;;;;;;;;;;15.80;99.90;;;;;;5113595;28;19944;-32
2023/10/11 06:40:47;;;;;;;;;;;15.80;99.90;;;;;;5113273;28;19961;-32
2023/10/11 06:43:13;;;;;;;;;;;15.80;99.90;;;;;;5114384;28;19975;-33
2023/10/11 06:45:41;;;;;;;;;;;15.80;99.90;;;;;;5147612;27;19999;-32
2023/10/11 06:48:08;;;;;;;;;;;15.80;99.90;;;;;;5112846;28;20009;-33
2023/10/11 06:50:36;;;;;;;;;;;15.80;99.90;;;;;;5113034;28;19941;-32
2023/10/11 06:53:06;;;;;;;;;;;15.80;99.90;;;;;;5114248;28;19944;-32
2023/10/11 06:55:33;;;;;;;;;;;15.90;99.90;;;;;;5113094;28;20424;-31
2023/10/11 06:58:08;;;;;;;;;;;15.90;99.90;;;;;;5114101;28;19939;-33
2023/10/11 07:00:37;;;;;;;;;;;15.90;99.90;;;;;;5112831;28;20435;-33
2023/10/11 07:03:09;;;;;;;;;;;16.00;99.90;;;;;;5112768;28;19943;-33
2023/10/11 07:05:41;;;;;;;;;;;16.00;99.90;;;;;;5147424;27;20418;-33
2023/10/11 07:08:08;;;;;;;;;;;16.00;99.90;;;;;;5113818;28;20376;-32
2023/10/11 07:10:35;;;;;;;;;;;16.00;99.90;;;;;;5113819;28;19945;-33
2023/10/11 07:13:07;;;;;;;;;;;16.00;99.90;;;;;;5112725;28;19940;-33
2023/10/11 07:15:38;;;;;;;;;;;16.00;99.90;;;;;;5113749;28;20301;-32
2023/10/11 07:18:08;;;;;;;;;;;16.00;99.90;;;;;;5113527;28;19961;-32
2023/10/11 07:20:47;;;;;;;;;;;16.10;99.90;;;;;;5113584;28;19948;-33
2023/10/11 07:23:18;;;;;;;;;;;16.10;99.90;;;;;;5113498;28;19951;-33
2023/10/11 07:25:46;;;;;;;;;;;16.10;99.90;;;;;;5113545;28;20023;-33
2023/10/11 07:28:35;;;;;;;;;;;16.10;99.90;;;;;;5112293;28;20037;-33
2023/10/11 07:31:02;;;;;;;;;;;16.20;99.90;;;;;;5112614;27;20432;-33
2023/10/11 07:33:29;;;;;;;;;;;16.20;99.90;;;;;;5112448;28;20029;-32
2023/10/11 07:35:59;;;;;;;;;;;16.20;99.90;;;;;;5113317;28;20018;-33
2023/10/11 07:38:32;;;;;;;;;;;16.20;99.90;;;;;;5113278;28;20113;-32
2023/10/11 07:41:04;;;;;;;;;;;16.30;99.90;;;;;;5113312;28;19962;-33
2023/10/11 07:43:33;;;;;;;;;;;16.20;99.90;;;;;;5113411;28;20037;-32
2023/10/11 07:46:02;;;;;;;;;;;16.30;99.90;;;;;;5112097;28;19949;-32
2023/10/11 07:48:32;;;;;;;;;;;16.30;99.90;;;;;;5111715;28;20038;-33
2023/10/11 07:51:09;;;;;;;;;;;16.30;99.90;;;;;;5111289;28;20445;-33
2023/10/11 07:53:36;;;;;;;;;;;16.30;99.90;;;;;;5146592;27;20027;-32
2023/10/11 07:56:04;;;;;;;;;;;16.40;99.90;;;;;;5112060;28;20294;-32
2023/10/11 07:58:33;;;;;;;;;;;16.40;99.90;;;;;;5113117;28;20362;-32
2023/10/11 08:01:03;;;;;;;;;;;16.40;99.90;;;;;;5111796;28;20464;-33
2023/10/11 08:03:34;;;;;;;;;;;16.40;99.90;;;;;;5112985;28;20034;-33
2023/10/11 08:06:05;;;;;;;;;;;16.50;99.90;;;;;;5112590;28;20363;-32
2023/10/11 08:08:32;;;;;;;;;;;16.50;99.90;;;;;;5113125;28;19944;-34
2023/10/11 08:11:05;;;;;;;;;;;16.50;99.90;;;;;;5112900;28;19941;-33
2023/10/11 08:13:34;;;;;;;;;;;16.50;99.90;;;;;;5111693;28;19950;-33
2023/10/11 08:16:05;;;;;;;;;;;16.50;99.90;;;;;;5112690;28;19950;-32
2023/10/11 08:18:33;;;;;;;;;;;16.60;99.90;;;;;;5111645;28;19946;-32
2023/10/11 08:21:00;;;;;;;;;;;16.60;99.90;;;;;;5111907;28;19949;-34
2023/10/11 08:23:30;;;;;;;;;;;16.60;99.90;;;;;;5112885;28;20371;-33
2023/10/11 08:25:56;;;;;;;;;;;16.60;99.90;;;;;;5111850;28;19943;-33
2023/10/11 08:28:28;;;;;;;;;;;16.60;99.90;;;;;;5111742;28;19955;-32
2023/10/11 08:30:58;;;;;;;;;;;16.60;99.90;;;;;;5111757;28;19954;-33
2023/10/11 08:33:25;;;;;;;;;;;16.60;99.90;;;;;;5111813;28;20016;-32
2023/10/11 08:35:53;;;;;;;;;;;16.70;99.90;;;;;;5111873;28;20404;-33
2023/10/11 08:38:19;;;;;;;;;;;16.60;99.90;;;;;;5111812;28;20037;-34
2023/10/11 08:40:50;;;;;;;;;;;16.70;99.90;;;;;;5112637;28;19996;-33
2023/10/11 08:43:16;;;;;;;;;;;16.70;99.90;;;;;;5114809;28;19943;-33
2023/10/11 08:45:49;;;;;;;;;;;16.70;99.90;;;;;;5116441;28;19994;-33
2023/10/11 08:48:17;;;;;;;;;;;16.70;99.90;;;;;;5116249;28;20438;-33
2023/10/11 08:50:51;;;;;;;;;;;16.70;99.90;;;;;;5115255;28;20029;-33
2023/10/11 08:53:20;;;;;;;;;;;16.80;99.90;;;;;;5116526;28;20313;-32
2023/10/11 08:55:49;;;;;;;;;;;16.80;99.90;;;;;;5149842;27;19942;-33
2023/10/11 08:58:23;;;;;;;;;;;16.80;99.90;;;;;;5149469;27;20009;-33
2023/10/11 09:00:52;;;;;;;;;;;16.80;99.90;;;;;;5116441;28;19941;-32
2023/10/11 09:03:20;;;;;;;;;;;16.80;99.90;;;;;;5116422;28;20334;-33
2023/10/11 09:05:47;;;;;;;;;;;16.90;99.90;;;;;;5115437;28;19954;-34
2023/10/11 09:08:21;;;;;;;;;;;16.90;99.90;;;;;;5115073;28;19994;-32
2023/10/11 09:10:49;;;;;;;;;;;16.90;99.90;;;;;;5114976;28;19943;-32
2023/10/11 09:13:24;;;;;;;;;;;16.90;99.90;;;;;;5114878;28;19947;-32
2023/10/11 09:15:54;;;;;;;;;;;17.00;99.90;;;;;;5116169;28;20336;-32
2023/10/11 09:18:25;;;;;;;;;;;17.00;99.90;;;;;;5115787;28;19943;-33
2023/10/11 09:20:55;;;;;;;;;;;17.00;99.90;;;;;;5114764;28;20012;-32
2023/10/11 09:23:29;;;;;;;;;;;17.10;99.90;;;;;;5114428;28;19965;-32
2023/10/11 09:25:58;;;;;;;;;;;17.10;99.90;;;;;;5114940;28;20000;-34
2023/10/11 09:28:26;;;;;;;;;;;17.20;99.90;;;;;;5114821;28;19947;-32
2023/10/11 09:31:11;;;;;;;;;;;17.20;99.90;;;;;;5114875;28;19943;-32
2023/10/11 09:33:40;;;;;;;;;;;17.20;99.90;;;;;;5115701;28;20303;-32
2023/10/11 09:36:06;;;;;;;;;;;17.20;99.90;;;;;;5148702;27;20019;-33
2023/10/11 09:38:39;;;;;;;;;;;17.20;99.90;;;;;;5114695;28;20000;-32
2023/10/11 09:41:07;;;;;;;;;;;17.20;99.90;;;;;;5114556;28;19951;-32
2023/10/11 09:43:34;;;;;;;;;;;17.20;99.90;;;;;;5114211;28;19966;-32
2023/10/11 09:46:03;;;;;;;;;;;17.30;99.90;;;;;;5114386;28;19944;-33
2023/10/11 09:48:30;;;;;;;;;;;17.30;99.90;;;;;;5115313;28;19966;-32
2023/10/11 09:50:58;;;;;;;;;;;17.30;99.90;;;;;;5114181;28;19944;-32
2023/10/11 09:53:25;;;;;;;;;;;17.30;99.90;;;;;;5113465;28;20008;-33
2023/10/11 09:55:55;;;;;;;;;;;17.30;99.90;;;;;;5114090;28;20368;-33
2023/10/11 09:58:24;;;;;;;;;;;17.40;99.90;;;;;;5148455;27;20442;-32
2023/10/11 10:00:52;;;;;;;;;;;17.40;99.90;;;;;;5148555;27;19942;-32
2023/10/11 10:03:24;;;;;;;;;;;17.40;99.90;;;;;;5114867;28;20007;-32
2023/10/11 10:06:10;;;;;;;;;;;17.50;99.90;;;;;;5115297;28;20026;-32
2023/10/11 10:08:38;;;;;;;;;;;17.50;99.90;;;;;;5114098;28;19947;-33
2023/10/11 10:11:04;;;;;;;;;;;17.60;99.90;;;;;;5113904;28;19997;-33
2023/10/11 10:13:41;;;;;;;;;;;17.70;99.90;;;;;;5114808;28;19997;-32
2023/10/11 10:16:13;;;;;;;;;;;17.80;99.90;;;;;;5114454;28;19982;-32
2023/10/11 10:18:39;;;;;;;;;;;17.90;99.90;;;;;;5113591;28;19996;-33
2023/10/11 10:21:06;;;;;;;;;;;17.90;99.90;;;;;;5113538;28;19945;-33
2023/10/11 10:23:40;;;;;;;;;;;18.00;99.90;;;;;;5113378;28;20009;-33
2023/10/11 10:26:40;;;;;;;;;;;18.10;99.90;;;;;;5113609;28;20372;-32
2023/10/11 10:29:11;;;;;;;;;;;18.10;99.90;;;;;;5148185;27;19947;-34
2023/10/11 10:31:53;;;;;;;;;;;18.20;99.90;;;;;;5114734;28;19945;-33
2023/10/11 10:34:24;;;;;;;;;;;18.30;99.90;;;;;;5101400;28;19945;-33
2023/10/11 10:36:52;;;;;;;;;;;18.30;99.90;;;;;;5114609;28;19997;-33
2023/10/11 10:39:46;;;;;;;;;;;18.50;99.90;;;;;;5113034;28;20371;-33
2023/10/11 10:42:16;;;;;;;;;;;18.50;99.90;;;;;;5114150;28;20437;-34
2023/10/11 10:44:51;;;;;;;;;;;18.60;99.90;;;;;;5113343;28;19951;-33
2023/10/11 10:47:24;;;;;;;;;;;18.60;99.90;;;;;;5147390;27;20050;-32
2023/10/11 10:49:54;;;;;;;;;;;18.60;99.90;;;;;;5113395;28;20298;-32
2023/10/11 10:52:21;;;;;;;;;;;18.60;99.90;;;;;;5113188;28;20033;-33
2023/10/11 10:54:55;;;;;;;;;;;18.60;99.90;;;;;;5113068;28;19984;-33
2023/10/11 10:57:22;;;;;;;;;;;18.70;99.90;;;;;;5113082;28;19994;-33
2023/10/11 10:59:48;;;;;;;;;;;18.70;99.90;;;;;;5114053;28;19940;-33
2023/10/11 11:02:19;;;;;;;;;;;18.80;99.90;;;;;;5147050;27;19962;-33
2023/10/11 11:04:46;;;;;;;;;;;18.80;99.90;;;;;;5113707;28;19987;-33
2023/10/11 11:07:20;;;;;;;;;;;18.80;99.90;;;;;;5112444;28;19941;-33
2023/10/11 11:09:47;;;;;;;;;;;18.90;99.90;;;;;;5114358;28;20015;-34
2023/10/11 11:12:14;;;;;;;;;;;19.00;99.90;;;;;;5112739;28;19943;-33
2023/10/11 11:14:51;;;;;;;;;;;19.00;99.90;;;;;;5112631;28;19953;-33
2023/10/11 11:17:23;;;;;;;;;;;19.10;99.90;;;;;;5112946;28;19941;-34
2023/10/11 11:20:13;;;;;;;;;;;19.20;99.90;;;;;;5112516;28;19993;-32
2023/10/11 11:22:39;;;;;;;;;;;19.30;99.90;;;;;;5113452;28;19959;-32
2023/10/11 11:25:26;;;;;;;;;;;19.30;99.90;;;;;;5113546;28;19949;-32
2023/10/11 11:28:05;;;;;;;;;;;19.30;99.90;;;;;;5112720;28;20453;-32
2023/10/11 11:30:34;;;;;;;;;;;19.30;99.90;;;;;;5113340;28;19937;-32
2023/10/11 11:33:08;;;;;;;;;;;19.30;99.90;;;;;;5112301;28;19941;-32
2023/10/11 11:35:43;;;;;;;;;;;19.30;99.90;;;;;;5113203;28;20399;-32
2023/10/11 11:38:19;;;;;;;;;;;19.30;99.90;;;;;;5113563;28;19948;-32
2023/10/11 11:40:47;;;;;;;;;;;19.30;99.90;;;;;;5112114;28;20068;-32
2023/10/11 11:43:16;;;;;;;;;;;19.40;99.90;;;;;;5112061;28;20057;-32
2023/10/11 11:45:43;;;;;;;;;;;19.40;99.90;;;;;;5112070;28;19968;-32
2023/10/11 11:48:11;;;;;;;;;;;19.40;99.90;;;;;;5112652;28;20057;-33
2023/10/11 11:50:39;;;;;;;;;;;19.50;99.90;;;;;;5112877;28;19996;-33
2023/10/11 11:53:04;;;;;;;;;;;19.40;99.90;;;;;;5112301;28;19974;-33
2023/10/11 11:55:31;;;;;;;;;;;19.50;99.90;;;;;;5113203;28;19939;-33
2023/10/11 11:57:57;;;;;;;;;;;19.50;99.90;;;;;;5112038;28;20034;-33
2023/10/11 12:00:39;;;;;;;;;;;19.60;99.90;;;;;;5111931;28;19959;-32
2023/10/11 12:03:05;;;;;;;;;;;19.60;99.90;;;;;;5111820;28;19965;-32
2023/10/11 12:05:37;;;;;;;;;;;19.70;99.90;;;;;;5112053;28;20360;-32
2023/10/11 12:08:04;;;;;;;;;;;19.70;99.90;;;;;;5112996;28;19986;-32
2023/10/11 12:10:32;;;;;;;;;;;19.70;99.90;;;;;;5112973;28;19950;-33
2023/10/11 12:13:05;;;;;;;;;;;19.70;99.90;;;;;;5111779;28;19942;-34
2023/10/11 12:15:32;;;;;;;;;;;19.70;99.90;;;;;;5112824;28;19999;-34
2023/10/11 12:17:58;;;;;;;;;;;19.70;99.90;;;;;;5114560;28;19944;-32
2023/10/11 12:20:33;;;;;;;;;;;19.80;99.90;;;;;;5115892;28;19943;-33
2023/10/11 12:23:07;;;;;;;;;;;19.90;99.90;;;;;;5115798;28;20020;-32
2023/10/11 12:25:35;;;;;;;;;;;20.00;99.90;;;;;;5116146;28;19945;-35
2023/10/11 12:28:04;;;;;;;;;;;20.20;99.90;;;;;;5150422;27;19953;-33
2023/10/11 12:30:33;;;;;;;;;;;20.30;99.90;;;;;;5115695;28;19943;-33
2023/10/11 12:33:00;;;;;;;;;;;20.40;99.90;;;;;;5116743;28;20413;-33
2023/10/11 12:35:28;;;;;;;;;;;20.40;99.90;;;;;;5115879;28;19995;-33
2023/10/11 12:38:00;;;;;;;;;;;20.40;99.90;;;;;;5115807;28;19944;-33
2023/10/11 12:40:28;;;;;;;;;;;20.40;99.90;;;;;;5115743;28;19944;-33
2023/10/11 12:42:55;;;;;;;;;;;20.50;99.90;;;;;;5115349;28;19966;-33
2023/10/11 12:45:22;;;;;;;;;;;20.50;99.90;;;;;;5115432;28;20035;-32
2023/10/11 12:47:49;;;;;;;;;;;20.60;99.90;;;;;;5116336;28;19965;-33
2023/10/11 12:50:17;;;;;;;;;;;20.60;99.90;;;;;;5116598;28;19948;-33
2023/10/11 12:52:45;;;;;;;;;;;20.60;99.90;;;;;;5149937;27;20043;-34
2023/10/11 12:55:12;;;;;;;;;;;20.50;99.90;;;;;;5116353;28;20326;-34
2023/10/11 12:57:40;;;;;;;;;;;20.40;99.90;;;;;;5115146;28;19946;-33
2023/10/11 13:00:28;;;;;;;;;;;20.30;99.90;;;;;;5116430;28;19951;-33
2023/10/11 13:02:58;;;;;;;;;;;20.30;99.90;;;;;;5115154;28;19967;-33
2023/10/11 13:05:26;;;;;;;;;;;20.20;99.90;;;;;;5149467;27;20034;-33
2023/10/11 13:07:54;;;;;;;;;;;20.20;99.90;;;;;;5115054;28;19943;-32
2023/10/11 13:10:22;;;;;;;;;;;20.20;99.90;;;;;;5115022;28;19946;-33
2023/10/11 13:12:53;;;;;;;;;;;20.20;99.90;;;;;;5115076;28;19947;-33
2023/10/11 13:15:21;;;;;;;;;;;20.20;99.90;;;;;;5115155;28;20550;-33
2023/10/11 13:17:48;;;;;;;;;;;20.20;99.90;;;;;;5114944;28;20009;-33
2023/10/11 13:20:19;;;;;;;;;;;20.20;99.90;;;;;;5114651;28;20009;-32
2023/10/11 13:22:45;;;;;;;;;;;20.30;99.90;;;;;;5114653;28;19961;-33
2023/10/11 13:25:23;;;;;;;;;;;20.30;99.90;;;;;;5114729;28;19943;-32
2023/10/11 13:27:54;;;;;;;;;;;20.30;99.90;;;;;;5115361;28;19944;-33
2023/10/11 13:30:22;;;;;;;;;;;20.30;99.90;;;;;;5115223;28;19941;-33
2023/10/11 13:32:49;;;;;;;;;;;20.30;99.90;;;;;;5114676;28;19943;-33
2023/10/11 13:35:15;;;;;;;;;;;20.30;99.90;;;;;;5149104;27;20042;-33
2023/10/11 13:37:46;;;;;;;;;;;20.30;99.90;;;;;;5115377;28;20329;-33
2023/10/11 13:40:14;;;;;;;;;;;20.30;99.90;;;;;;5114764;28;19941;-33
2023/10/11 13:42:42;;;;;;;;;;;20.30;99.90;;;;;;5114568;28;20003;-32
2023/10/11 13:45:14;;;;;;;;;;;20.20;99.90;;;;;;5114478;28;19969;-33
2023/10/11 13:47:41;;;;;;;;;;;20.20;99.90;;;;;;5115246;28;19967;-32
2023/10/11 13:50:20;;;;;;;;;;;20.20;99.90;;;;;;5115210;28;19946;-33
2023/10/11 13:52:49;;;;;;;;;;;20.20;99.90;;;;;;5115689;28;19945;-33
2023/10/11 13:55:16;;;;;;;;;;;20.20;99.90;;;;;;5115461;28;19943;-32
2023/10/11 13:57:49;;;;;;;;;;;20.10;99.90;;;;;;5114344;28;19994;-33
2023/10/11 14:03:30;;;;;;;;;;;20.10;99.90;;;;;;5112849;28;19963;-32
2023/10/11 14:05:50;;;;;;;;;;;20.10;99.90;;;;;;5114879;27;20064;-33
2023/10/11 14:08:24;;;;;;;;;;;20.10;99.90;;;;;;5113925;28;19948;-33
2023/10/11 14:10:51;;;;;;;;;;;20.20;99.90;;;;;;5114775;28;20450;-34
2023/10/11 14:13:24;;;;;;;;;;;20.30;99.90;;;;;;5114643;28;19986;-33
2023/10/11 14:15:52;;;;;;;;;;;20.30;99.90;;;;;;5113977;28;19952;-33
2023/10/11 14:18:19;;;;;;;;;;;20.30;99.90;;;;;;5114728;28;19990;-33
2023/10/11 14:20:49;;;;;;;;;;;20.30;99.90;;;;;;5114602;28;20403;-32
2023/10/11 14:23:16;;;;;;;;;;;20.40;99.90;;;;;;5114540;28;19986;-32
2023/10/11 14:25:42;;;;;;;;;;;20.40;99.90;;;;;;5113621;28;19999;-33
2023/10/11 14:28:14;;;;;;;;;;;20.40;99.90;;;;;;5113422;28;20407;-33
2023/10/11 14:30:41;;;;;;;;;;;20.40;99.90;;;;;;5114476;28;20421;-33
2023/10/11 14:33:09;;;;;;;;;;;20.30;99.90;;;;;;5114523;28;20000;-32
2023/10/11 14:35:37;;;;;;;;;;;20.30;99.90;;;;;;5114178;28;19947;-32
2023/10/11 14:38:04;;;;;;;;;;;20.30;99.90;;;;;;5113440;28;19944;-32
2023/10/11 14:40:31;;;;;;;;;;;20.30;99.90;;;;;;5114018;28;19937;-32
2023/10/11 14:42:57;;;;;;;;;;;20.30;99.90;;;;;;5113051;28;19960;-32
2023/10/11 14:45:24;;;;;;;;;;;20.30;99.90;;;;;;5113235;28;19979;-35
2023/10/11 14:47:50;;;;;;;;;;;20.20;99.90;;;;;;5114027;28;19966;-32
2023/10/11 14:50:22;;;;;;;;;;;20.20;99.90;;;;;;5113127;28;20311;-32
2023/10/11 14:52:49;;;;;;;;;;;20.20;99.90;;;;;;5112702;28;20024;-33
2023/10/11 14:55:17;;;;;;;;;;;20.20;99.90;;;;;;5112765;28;19941;-32
2023/10/11 14:57:44;;;;;;;;;;;20.20;99.90;;;;;;5112818;28;19943;-32